Time;durP1;ratioP1;P1;durP2;ratioP2;P2;SDS_P1;SDS_P2;PMS_P1;PMS_P2;Temp;Humidity;BMP_temperature;BMP_pressure;BME280_temperature;BME280_humidity;BME280_pressure;Samples;Min_cycle;Max_cycle;Signal;HPM_P1;HPM_P2
2022/10/08 00:00:41;;;;;;;4.97;4.37;;;;;;;;;;5089469;28;20239;-42
2022/10/08 00:03:09;;;;;;;6.03;4.80;;;;;;;;;;5084736;28;20323;-39
2022/10/08 00:05:36;;;;;;;8.07;5.23;;;;;;;;;;5086808;28;20225;-38
2022/10/08 00:08:03;;;;;;;6.90;4.70;;;;;;;;;;5089299;28;20205;-41
2022/10/08 00:10:31;;;;;;;6.30;5.30;;;;;;;;;;5088883;28;20224;-39
2022/10/08 00:12:58;;;;;;;7.60;6.37;;;;;;;;;;5079608;28;20204;-40
2022/10/08 00:15:27;;;;;;;5.40;4.87;;;;;;;;;;5087914;28;20208;-40
2022/10/08 00:17:54;;;;;;;7.93;5.73;;;;;;;;;;5081421;28;20239;-39
2022/10/08 00:20:22;;;;;;;7.00;5.43;;;;;;;;;;5077755;28;20226;-40
2022/10/08 00:22:49;;;;;;;6.33;5.60;;;;;;;;;;5089529;28;20208;-39
2022/10/08 00:25:16;;;;;;;5.93;4.10;;;;;;;;;;5090220;28;20219;-37
2022/10/08 00:27:43;;;;;;;7.53;5.60;;;;;;;;;;5078843;28;20216;-42
2022/10/08 00:30:11;;;;;;;5.30;4.77;;;;;;;;;;5086277;28;20233;-39
2022/10/08 00:32:40;;;;;;;6.13;5.50;;;;;;;;;;5084170;28;20208;-41
2022/10/08 00:35:07;;;;;;;12.10;5.30;;;;;;;;;;5083052;28;20211;-42
2022/10/08 00:37:34;;;;;;;9.43;5.23;;;;;;;;;;5090347;28;20197;-43
2022/10/08 00:40:01;;;;;;;6.73;5.20;;;;;;;;;;5090519;28;20233;-44
2022/10/08 00:42:28;;;;;;;5.80;5.07;;;;;;;;;;5083111;28;20212;-42
2022/10/08 00:44:57;;;;;;;8.83;5.73;;;;;;;;;;5089525;28;20222;-43
2022/10/08 00:47:36;;;;;;;7.10;4.90;;;;;;;;;;5083674;28;20275;-41
2022/10/08 00:50:07;;;;;;;6.13;5.53;;;;;;;;;;5074501;28;20228;-44
2022/10/08 00:52:35;;;;;;;13.83;5.93;;;;;;;;;;5087725;28;20203;-42
2022/10/08 00:55:05;;;;;;;10.60;5.83;;;;;;;;;;5087423;28;20206;-43
2022/10/08 00:57:33;;;;;;;7.87;5.13;;;;;;;;;;5090029;28;20254;-38
2022/10/08 01:00:01;;;;;;;5.53;5.00;;;;;;;;;;5091380;28;20246;-40
2022/10/08 01:02:28;;;;;;;6.67;5.13;;;;;;;;;;5080122;28;20210;-42
2022/10/08 01:04:56;;;;;;;7.00;4.93;;;;;;;;;;5091211;28;20233;-41
2022/10/08 01:07:26;;;;;;;6.93;5.97;;;;;;;;;;5085289;28;20205;-40
2022/10/08 01:09:56;;;;;;;6.63;5.63;;;;;;;;;;5084238;28;20235;-41
2022/10/08 01:12:28;;;;;;;13.20;6.67;;;;;;;;;;5083017;28;20212;-41
2022/10/08 01:14:56;;;;;;;5.50;4.83;;;;;;;;;;5082614;28;20201;-42
2022/10/08 01:17:26;;;;;;;5.77;5.20;;;;;;;;;;5073870;28;20311;-43
2022/10/08 01:20:13;;;;;;;9.43;5.87;;;;;;;;;;5079945;28;20222;-40
2022/10/08 01:22:50;;;;;;;8.43;6.13;;;;;;;;;;5093098;28;20227;-40
2022/10/08 01:28:12;;;;;;;7.20;4.93;;;;;;;;;;5082315;28;20218;-43
2022/10/08 01:30:42;;;;;;;6.23;5.00;;;;;;;;;;5092529;28;20255;-44
2022/10/08 01:33:12;;;;;;;6.00;4.70;;;;;;;;;;5082051;28;20208;-41
2022/10/08 01:35:43;;;;;;;5.77;5.20;;;;;;;;;;5086777;28;20204;-39
2022/10/08 01:38:13;;;;;;;6.07;5.27;;;;;;;;;;5095423;28;20193;-41
2022/10/08 01:40:42;;;;;;;5.23;4.50;;;;;;;;;;5083827;28;20228;-41
2022/10/08 01:43:11;;;;;;;12.00;5.30;;;;;;;;;;5087740;28;20219;-43
2022/10/08 01:45:41;;;;;;;6.47;4.80;;;;;;;;;;5089947;28;20318;-41
2022/10/08 01:48:13;;;;;;;5.67;4.97;;;;;;;;;;5082825;28;20301;-41
2022/10/08 01:50:42;;;;;;;6.23;5.37;;;;;;;;;;5083978;28;20316;-43
2022/10/08 01:53:11;;;;;;;5.50;4.70;;;;;;;;;;5091458;28;20268;-40
2022/10/08 01:55:40;;;;;;;7.57;4.93;;;;;;;;;;5072188;28;20197;-44
2022/10/08 01:58:08;;;;;;;7.03;5.10;;;;;;;;;;5077478;28;20292;-43
2022/10/08 02:00:36;;;;;;;8.07;5.07;;;;;;;;;;5090890;28;20226;-40
2022/10/08 02:03:05;;;;;;;5.97;5.37;;;;;;;;;;5079693;28;20212;-38
2022/10/08 02:05:34;;;;;;;5.07;4.57;;;;;;;;;;5087858;28;20216;-38
2022/10/08 02:08:03;;;;;;;5.67;4.97;;;;;;;;;;5091232;28;20233;-43
2022/10/08 02:10:31;;;;;;;8.67;5.20;;;;;;;;;;5086299;28;20316;-40
2022/10/08 02:12:58;;;;;;;8.00;5.67;;;;;;;;;;5090776;28;20206;-42
2022/10/08 02:15:30;;;;;;;7.23;5.60;;;;;;;;;;5090935;28;20201;-44
2022/10/08 02:17:58;;;;;;;4.83;4.33;;;;;;;;;;5083963;28;20206;-39
2022/10/08 02:20:31;;;;;;;8.03;5.27;;;;;;;;;;5083981;28;20222;-42
2022/10/08 02:23:03;;;;;;;4.70;4.30;;;;;;;;;;5091453;28;20262;-42
2022/10/08 02:25:32;;;;;;;6.43;4.97;;;;;;;;;;5080741;28;20237;-40
2022/10/08 02:28:03;;;;;;;6.70;5.47;;;;;;;;;;5083527;28;20215;-40
2022/10/08 02:30:37;;;;;;;6.13;5.30;;;;;;;;;;5090137;28;20227;-42
2022/10/08 02:33:06;;;;;;;7.37;4.67;;;;;;;;;;5078694;28;20201;-41
2022/10/08 02:35:42;;;;;;;5.07;4.57;;;;;;;;;;5081033;28;20205;-43
2022/10/08 02:38:12;;;;;;;5.13;4.70;;;;;;;;;;5091941;28;20228;-42
2022/10/08 02:40:41;;;;;;;5.93;4.40;;;;;;;;;;5090546;28;20225;-39
2022/10/08 02:43:11;;;;;;;5.27;4.77;;;;;;;;;;5083908;28;20216;-44
2022/10/08 02:45:42;;;;;;;7.03;4.70;;;;;;;;;;5089405;28;20216;-42
2022/10/08 02:48:11;;;;;;;6.00;5.40;;;;;;;;;;5081786;28;20208;-39
2022/10/08 02:50:42;;;;;;;6.47;4.90;;;;;;;;;;5090585;28;20230;-41
2022/10/08 02:53:13;;;;;;;5.33;4.70;;;;;;;;;;5091600;28;20230;-42
2022/10/08 02:55:43;;;;;;;5.93;4.60;;;;;;;;;;5090858;28;20576;-41
2022/10/08 02:58:11;;;;;;;6.73;4.37;;;;;;;;;;5086351;28;20503;-42
2022/10/08 03:00:41;;;;;;;6.17;4.60;;;;;;;;;;5083155;28;20217;-39
2022/10/08 03:03:10;;;;;;;6.53;5.20;;;;;;;;;;5076653;28;20217;-42
2022/10/08 03:05:38;;;;;;;6.50;4.97;;;;;;;;;;5081438;28;20231;-40
2022/10/08 03:08:08;;;;;;;6.33;5.10;;;;;;;;;;5091009;28;20226;-40
2022/10/08 03:10:36;;;;;;;5.33;4.60;;;;;;;;;;5086531;28;20225;-42
2022/10/08 03:13:04;;;;;;;6.17;4.40;;;;;;;;;;5084022;28;20287;-43
2022/10/08 03:15:32;;;;;;;6.67;4.43;;;;;;;;;;5089901;28;20290;-41
2022/10/08 03:17:59;;;;;;;5.80;5.03;;;;;;;;;;5080123;28;20259;-44
2022/10/08 03:20:27;;;;;;;6.37;4.67;;;;;;;;;;5079817;28;20222;-40
2022/10/08 03:22:54;;;;;;;6.43;5.23;;;;;;;;;;5090486;28;20216;-44
2022/10/08 03:25:23;;;;;;;6.17;4.33;;;;;;;;;;5084776;28;20223;-42
2022/10/08 03:27:50;;;;;;;5.87;4.50;;;;;;;;;;5073111;28;20251;-40
2022/10/08 03:30:18;;;;;;;7.67;4.77;;;;;;;;;;5090266;28;20277;-41
2022/10/08 03:32:45;;;;;;;5.20;4.70;;;;;;;;;;5081766;28;20210;-40
2022/10/08 03:35:12;;;;;;;7.27;4.73;;;;;;;;;;5081537;28;20288;-39
2022/10/08 03:37:39;;;;;;;6.53;4.70;;;;;;;;;;5088441;28;20206;-38
2022/10/08 03:40:07;;;;;;;7.67;5.17;;;;;;;;;;5090346;28;20224;-42
2022/10/08 03:42:36;;;;;;;5.67;5.10;;;;;;;;;;5085047;28;20211;-40
2022/10/08 03:45:03;;;;;;;6.83;4.80;;;;;;;;;;5084536;28;20314;-43
2022/10/08 03:47:30;;;;;;;6.67;5.30;;;;;;;;;;5082873;28;20232;-43
2022/10/08 03:49:57;;;;;;;7.93;5.20;;;;;;;;;;5083057;28;20231;-42
2022/10/08 03:52:24;;;;;;;9.50;5.23;;;;;;;;;;5091081;28;20201;-41
2022/10/08 03:54:51;;;;;;;7.37;4.87;;;;;;;;;;5093692;28;20208;-39
2022/10/08 03:57:18;;;;;;;5.30;4.70;;;;;;;;;;5091556;28;20211;-43
2022/10/08 03:59:47;;;;;;;5.07;4.43;;;;;;;;;;5090100;28;20256;-40
2022/10/08 04:02:14;;;;;;;5.53;4.60;;;;;;;;;;5083846;28;20217;-43
2022/10/08 04:04:41;;;;;;;6.27;5.67;;;;;;;;;;5074675;28;20244;-39
2022/10/08 04:07:08;;;;;;;9.00;4.87;;;;;;;;;;5089671;28;20222;-39
2022/10/08 04:09:36;;;;;;;7.73;4.67;;;;;;;;;;5089506;28;20217;-40
2022/10/08 04:12:03;;;;;;;6.37;4.27;;;;;;;;;;5084138;28;20209;-42
2022/10/08 04:14:30;;;;;;;4.57;4.17;;;;;;;;;;5084751;28;20209;-44
2022/10/08 04:16:58;;;;;;;5.33;4.47;;;;;;;;;;5086909;28;20351;-43
2022/10/08 04:19:25;;;;;;;7.13;5.57;;;;;;;;;;5089867;28;20205;-42
2022/10/08 04:21:53;;;;;;;5.40;4.40;;;;;;;;;;5090818;28;20208;-39
2022/10/08 04:24:20;;;;;;;6.77;4.90;;;;;;;;;;5078551;28;20203;-42
2022/10/08 04:26:47;;;;;;;7.70;5.70;;;;;;;;;;5071486;28;20324;-43
2022/10/08 04:29:14;;;;;;;10.13;6.37;;;;;;;;;;5079712;28;20215;-40
2022/10/08 04:31:41;;;;;;;7.33;5.40;;;;;;;;;;5087155;28;20208;-41
2022/10/08 04:34:11;;;;;;;8.23;5.37;;;;;;;;;;5073672;28;20240;-42
2022/10/08 04:36:39;;;;;;;6.13;4.17;;;;;;;;;;5087378;28;20198;-42
2022/10/08 04:39:06;;;;;;;6.67;5.50;;;;;;;;;;5075267;28;20207;-42
2022/10/08 04:41:33;;;;;;;6.33;5.23;;;;;;;;;;5077139;28;20225;-42
2022/10/08 04:44:01;;;;;;;5.83;5.07;;;;;;;;;;5073499;28;20206;-42
2022/10/08 04:46:28;;;;;;;5.70;4.83;;;;;;;;;;5089066;28;20284;-40
2022/10/08 04:48:56;;;;;;;7.93;5.97;;;;;;;;;;5070827;28;20207;-37
2022/10/08 04:51:25;;;;;;;8.40;5.77;;;;;;;;;;5084138;28;20228;-43
2022/10/08 04:53:52;;;;;;;4.67;4.17;;;;;;;;;;5093645;28;20204;-41
2022/10/08 04:56:20;;;;;;;4.83;4.33;;;;;;;;;;5088605;28;20197;-38
2022/10/08 04:58:48;;;;;;;5.30;4.80;;;;;;;;;;5079424;28;20212;-38
2022/10/08 05:01:17;;;;;;;5.83;5.10;;;;;;;;;;5093696;28;20233;-42
2022/10/08 05:03:44;;;;;;;5.20;4.70;;;;;;;;;;5083494;28;20292;-44
2022/10/08 05:06:11;;;;;;;7.80;5.70;;;;;;;;;;5093819;28;20231;-44
2022/10/08 05:08:40;;;;;;;8.87;4.97;;;;;;;;;;5088915;28;20213;-41
2022/10/08 05:11:07;;;;;;;7.60;5.00;;;;;;;;;;5092992;28;20229;-37
2022/10/08 05:13:34;;;;;;;7.00;5.10;;;;;;;;;;5093286;28;20228;-39
2022/10/08 05:16:03;;;;;;;5.33;4.43;;;;;;;;;;5093915;28;20211;-40
2022/10/08 05:18:31;;;;;;;6.30;5.60;;;;;;;;;;5074645;28;20228;-40
2022/10/08 05:21:02;;;;;;;6.83;4.70;;;;;;;;;;5085653;28;20277;-43
2022/10/08 05:23:29;;;;;;;9.77;6.10;;;;;;;;;;5093717;28;20278;-40
2022/10/08 05:25:58;;;;;;;11.07;5.53;;;;;;;;;;5089068;28;20201;-39
2022/10/08 05:28:25;;;;;;;9.17;5.70;;;;;;;;;;5084372;28;20208;-42
2022/10/08 05:30:52;;;;;;;7.43;6.30;;;;;;;;;;5092760;28;20217;-42
2022/10/08 05:33:19;;;;;;;8.07;6.30;;;;;;;;;;5085189;28;20678;-42
2022/10/08 05:35:47;;;;;;;5.57;4.97;;;;;;;;;;5088500;28;20219;-44
2022/10/08 05:38:14;;;;;;;6.80;5.20;;;;;;;;;;5091605;28;20276;-37
2022/10/08 05:40:41;;;;;;;10.77;6.13;;;;;;;;;;5092119;28;20244;-42
2022/10/08 05:43:09;;;;;;;6.07;5.40;;;;;;;;;;5086809;28;20221;-41
2022/10/08 05:45:37;;;;;;;8.10;6.20;;;;;;;;;;5093396;28;20199;-38
2022/10/08 05:48:04;;;;;;;7.60;5.17;;;;;;;;;;5088849;28;20225;-43
2022/10/08 05:53:02;;;;;;;7.13;5.63;;;;;;;;;;5076371;28;20277;-41
2022/10/08 05:55:29;;;;;;;7.47;5.63;;;;;;;;;;5072780;28;20194;-45
2022/10/08 05:57:56;;;;;;;7.37;6.20;;;;;;;;;;5066972;28;20198;-43
2022/10/08 06:00:25;;;;;;;6.00;5.40;;;;;;;;;;5072002;28;20229;-39
2022/10/08 06:02:53;;;;;;;5.37;4.63;;;;;;;;;;5064536;28;20296;-43
2022/10/08 06:05:20;;;;;;;6.60;4.70;;;;;;;;;;5065122;28;20201;-44
2022/10/08 06:07:47;;;;;;;5.90;5.30;;;;;;;;;;5072517;28;20221;-37
2022/10/08 06:10:15;;;;;;;11.30;10.07;;;;;;;;;;5068196;28;20241;-42
2022/10/08 06:12:42;;;;;;;7.77;6.00;;;;;;;;;;5074034;28;20285;-44
2022/10/08 06:15:09;;;;;;;7.20;5.60;;;;;;;;;;5074151;28;20210;-43
2022/10/08 06:17:38;;;;;;;7.53;5.87;;;;;;;;;;5072403;28;20202;-43
2022/10/08 06:20:06;;;;;;;12.37;6.27;;;;;;;;;;5074348;28;20284;-40
2022/10/08 06:22:33;;;;;;;8.33;5.63;;;;;;;;;;5074125;28;20205;-41
2022/10/08 06:25:00;;;;;;;11.20;6.40;;;;;;;;;;5074638;28;20233;-43
2022/10/08 06:27:28;;;;;;;6.80;5.63;;;;;;;;;;5069691;28;20245;-40
2022/10/08 06:29:55;;;;;;;6.93;5.27;;;;;;;;;;5073276;28;20229;-42
2022/10/08 06:32:23;;;;;;;5.37;4.87;;;;;;;;;;5071083;28;20231;-37
2022/10/08 06:34:51;;;;;;;8.37;5.73;;;;;;;;;;5058198;28;20249;-40
2022/10/08 06:37:19;;;;;;;8.93;7.10;;;;;;;;;;5074526;28;20286;-40
2022/10/08 06:39:46;;;;;;;7.47;5.53;;;;;;;;;;5073576;28;20227;-40
2022/10/08 06:42:13;;;;;;;8.27;6.40;;;;;;;;;;5071581;28;20209;-38
2022/10/08 06:44:40;;;;;;;10.03;6.70;;;;;;;;;;5074565;28;20243;-41
2022/10/08 06:47:07;;;;;;;6.67;5.97;;;;;;;;;;5072501;28;20228;-36
2022/10/08 06:49:35;;;;;;;6.60;5.90;;;;;;;;;;5057814;28;20224;-42
2022/10/08 06:52:04;;;;;;;8.90;6.13;;;;;;;;;;5072890;28;20249;-42
2022/10/08 06:54:31;;;;;;;6.70;5.73;;;;;;;;;;5057823;28;20236;-40
2022/10/08 06:57:04;;;;;;;5.93;5.33;;;;;;;;;;5071658;28;20218;-36
2022/10/08 06:59:32;;;;;;;7.10;5.87;;;;;;;;;;5072641;28;20241;-44
2022/10/08 07:01:59;;;;;;;10.27;6.30;;;;;;;;;;5070175;28;20209;-40
2022/10/08 07:04:26;;;;;;;8.50;6.40;;;;;;;;;;5057942;28;20274;-42
2022/10/08 07:06:53;;;;;;;10.70;5.77;;;;;;;;;;5071890;28;20222;-42
2022/10/08 07:09:22;;;;;;;8.47;6.67;;;;;;;;;;5074557;28;20215;-41
2022/10/08 07:11:49;;;;;;;7.70;6.40;;;;;;;;;;5066049;28;20215;-42
2022/10/08 07:14:16;;;;;;;8.97;6.73;;;;;;;;;;5064497;28;20205;-38
2022/10/08 07:16:44;;;;;;;9.80;6.43;;;;;;;;;;5070286;28;20197;-38
2022/10/08 07:19:11;;;;;;;7.73;6.83;;;;;;;;;;5057926;28;20202;-39
2022/10/08 07:21:39;;;;;;;9.73;6.53;;;;;;;;;;5072330;28;20218;-39
2022/10/08 07:24:06;;;;;;;8.57;6.53;;;;;;;;;;5073442;28;20258;-39
2022/10/08 07:26:35;;;;;;;8.60;7.00;;;;;;;;;;5066722;28;20294;-38
2022/10/08 07:29:04;;;;;;;8.70;6.77;;;;;;;;;;5072637;28;20205;-42
2022/10/08 07:31:34;;;;;;;10.47;7.27;;;;;;;;;;5073170;28;20221;-41
2022/10/08 07:34:02;;;;;;;10.90;7.10;;;;;;;;;;5061312;28;20209;-43
2022/10/08 07:36:31;;;;;;;8.60;6.80;;;;;;;;;;5071509;28;20284;-38
2022/10/08 07:38:59;;;;;;;11.50;7.00;;;;;;;;;;5072529;28;20201;-44
2022/10/08 07:41:26;;;;;;;11.27;7.67;;;;;;;;;;5069404;28;20316;-41
2022/10/08 07:43:57;;;;;;;8.70;6.80;;;;;;;;;;5055907;28;20205;-42
2022/10/08 07:46:24;;;;;;;8.80;7.23;;;;;;;;;;5071749;28;20593;-40
2022/10/08 07:48:52;;;;;;;9.97;7.40;;;;;;;;;;5057467;28;20206;-39
2022/10/08 07:51:21;;;;;;;11.17;7.67;;;;;;;;;;5066925;28;20298;-39
2022/10/08 07:53:52;;;;;;;8.00;6.87;;;;;;;;;;5073185;28;20202;-42
2022/10/08 07:56:20;;;;;;;10.67;7.97;;;;;;;;;;5071367;28;20204;-42
2022/10/08 07:58:48;;;;;;;16.83;8.87;;;;;;;;;;5072368;28;20244;-35
2022/10/08 08:01:18;;;;;;;9.77;7.27;;;;;;;;;;5073639;28;20225;-41
2022/10/08 08:03:45;;;;;;;8.53;7.60;;;;;;;;;;5062851;28;20300;-40
2022/10/08 08:06:13;;;;;;;8.40;6.77;;;;;;;;;;5066130;28;20216;-41
2022/10/08 08:08:41;;;;;;;9.77;7.70;;;;;;;;;;5064783;28;20709;-39
2022/10/08 08:11:10;;;;;;;10.10;7.83;;;;;;;;;;5067442;28;20229;-41
2022/10/08 08:13:38;;;;;;;12.40;7.73;;;;;;;;;;5071873;28;20220;-37
2022/10/08 08:16:06;;;;;;;11.83;6.80;;;;;;;;;;5073094;28;20202;-40
2022/10/08 08:18:36;;;;;;;13.17;8.00;;;;;;;;;;5065530;28;20228;-37
2022/10/08 08:21:14;;;;;;;9.10;7.80;;;;;;;;;;5071309;28;20229;-42
2022/10/08 08:23:42;;;;;;;10.80;7.90;;;;;;;;;;5072964;28;20281;-42
2022/10/08 08:26:11;;;;;;;12.33;8.50;;;;;;;;;;5073618;28;20260;-39
2022/10/08 08:28:38;;;;;;;11.70;8.43;;;;;;;;;;5070417;28;20258;-40
2022/10/08 08:31:09;;;;;;;12.07;8.27;;;;;;;;;;5076635;28;20218;-36
2022/10/08 08:33:38;;;;;;;8.93;7.10;;;;;;;;;;5059221;28;20237;-38
2022/10/08 08:36:06;;;;;;;10.93;6.90;;;;;;;;;;5067046;28;20209;-41
2022/10/08 08:38:43;;;;;;;11.63;7.57;;;;;;;;;;5066793;28;20205;-43
2022/10/08 08:41:19;;;;;;;18.53;6.83;;;;;;;;;;5069066;28;20225;-41
2022/10/08 08:43:46;;;;;;;10.73;5.87;;;;;;;;;;5075191;28;20192;-36
2022/10/08 08:46:15;;;;;;;10.47;5.07;;;;;;;;;;5068060;28;20220;-43
2022/10/08 08:48:45;;;;;;;10.57;5.37;;;;;;;;;;5060376;28;20221;-40
2022/10/08 08:51:12;;;;;;;9.67;5.27;;;;;;;;;;5074415;28;20264;-43
2022/10/08 08:53:39;;;;;;;10.50;5.23;;;;;;;;;;5076342;28;20257;-42
2022/10/08 08:56:08;;;;;;;10.27;4.57;;;;;;;;;;5076700;28;20254;-42
2022/10/08 08:58:41;;;;;;;7.57;3.50;;;;;;;;;;5071318;28;20227;-40
2022/10/08 09:01:14;;;;;;;7.17;2.90;;;;;;;;;;5076604;28;20225;-41
2022/10/08 09:03:43;;;;;;;7.33;3.17;;;;;;;;;;5070370;28;20208;-40
2022/10/08 09:06:13;;;;;;;4.70;2.80;;;;;;;;;;5075893;28;20201;-44
2022/10/08 09:08:42;;;;;;;8.97;3.20;;;;;;;;;;5071200;28;20611;-43
2022/10/08 09:11:12;;;;;;;4.00;2.83;;;;;;;;;;5072286;28;20315;-43
2022/10/08 09:13:41;;;;;;;7.13;3.07;;;;;;;;;;5075653;28;20201;-37
2022/10/08 09:16:10;;;;;;;13.50;3.43;;;;;;;;;;5075582;28;20205;-40
2022/10/08 09:18:38;;;;;;;5.97;3.90;;;;;;;;;;5064079;28;20300;-40
2022/10/08 09:21:05;;;;;;;9.40;3.30;;;;;;;;;;5067933;28;20225;-39
2022/10/08 09:23:34;;;;;;;5.60;2.90;;;;;;;;;;5076047;28;20211;-37
2022/10/08 09:26:04;;;;;;;6.73;2.77;;;;;;;;;;5076496;28;20217;-39
2022/10/08 09:28:38;;;;;;;9.23;2.93;;;;;;;;;;5073467;28;20252;-42
2022/10/08 09:31:12;;;;;;;5.63;2.30;;;;;;;;;;5068220;28;20247;-40
2022/10/08 09:33:40;;;;;;;6.77;2.77;;;;;;;;;;5062302;28;20202;-38
2022/10/08 09:36:07;;;;;;;4.53;2.63;;;;;;;;;;5067969;28;20227;-43
2022/10/08 09:38:37;;;;;;;7.30;2.77;;;;;;;;;;5074928;28;20197;-40
2022/10/08 09:41:06;;;;;;;7.17;2.63;;;;;;;;;;5069157;28;20217;-41
2022/10/08 09:43:33;;;;;;;3.40;2.13;;;;;;;;;;5065503;28;20267;-37
2022/10/08 09:46:04;;;;;;;6.13;2.40;;;;;;;;;;5061454;28;20212;-44
2022/10/08 09:48:34;;;;;;;5.93;2.30;;;;;;;;;;5060588;28;20225;-41
2022/10/08 09:51:03;;;;;;;4.37;2.30;;;;;;;;;;5070804;28;20229;-42
2022/10/08 09:53:33;;;;;;;7.13;2.33;;;;;;;;;;5073445;28;20194;-38
2022/10/08 09:56:03;;;;;;;8.03;2.40;;;;;;;;;;5075309;28;20213;-39
2022/10/08 09:58:31;;;;;;;17.50;8.40;;;;;;;;;;5061121;28;20201;-39
2022/10/08 10:01:04;;;;;;;7.93;3.07;;;;;;;;;;5060349;28;20231;-42
2022/10/08 10:03:31;;;;;;;13.07;5.80;;;;;;;;;;5071989;28;20209;-38
2022/10/08 10:05:59;;;;;;;7.13;2.10;;;;;;;;;;5066934;28;20220;-40
2022/10/08 10:08:49;;;;;;;6.40;2.07;;;;;;;;;;5074426;28;20271;-44
2022/10/08 10:11:21;;;;;;;5.07;2.00;;;;;;;;;;5063039;28;20233;-34
2022/10/08 10:13:49;;;;;;;6.73;2.03;;;;;;;;;;5072610;28;20198;-41
2022/10/08 10:16:19;;;;;;;5.30;2.17;;;;;;;;;;5074655;28;20193;-40
2022/10/08 10:18:49;;;;;;;6.80;2.07;;;;;;;;;;5071903;28;20197;-37
2022/10/08 10:21:18;;;;;;;2.83;1.80;;;;;;;;;;5068183;28;20308;-39
2022/10/08 10:23:50;;;;;;;5.27;2.47;;;;;;;;;;5074743;28;20233;-40
2022/10/08 10:26:20;;;;;;;7.30;2.20;;;;;;;;;;5073105;28;20197;-40
2022/10/08 10:28:51;;;;;;;6.57;2.10;;;;;;;;;;5069797;28;20275;-42
2022/10/08 10:31:22;;;;;;;8.00;2.03;;;;;;;;;;5074379;28;20236;-40
2022/10/08 10:33:52;;;;;;;5.30;2.00;;;;;;;;;;5070849;28;20255;-39
2022/10/08 10:36:19;;;;;;;5.43;1.93;;;;;;;;;;5073581;28;20297;-39
2022/10/08 10:38:49;;;;;;;5.37;1.97;;;;;;;;;;5073622;28;20198;-42
2022/10/08 10:41:21;;;;;;;7.77;2.60;;;;;;;;;;5069089;28;20221;-41
2022/10/08 10:43:51;;;;;;;5.77;2.00;;;;;;;;;;5073710;28;20283;-38
2022/10/08 10:46:31;;;;;;;6.40;1.87;;;;;;;;;;5073800;28;20248;-40
2022/10/08 10:48:59;;;;;;;7.93;1.97;;;;;;;;;;5066919;28;20213;-39
2022/10/08 10:51:35;;;;;;;7.43;1.97;;;;;;;;;;5072926;28;20225;-41
2022/10/08 10:54:09;;;;;;;6.57;2.30;;;;;;;;;;5073989;28;20211;-40
2022/10/08 10:56:38;;;;;;;5.70;1.93;;;;;;;;;;5069121;28;20304;-35
2022/10/08 10:59:20;;;;;;;7.27;1.83;;;;;;;;;;5069224;28;20197;-37
2022/10/08 11:01:51;;;;;;;3.87;1.50;;;;;;;;;;5072301;28;20205;-40
2022/10/08 11:04:24;;;;;;;5.50;1.90;;;;;;;;;;5069810;28;20201;-42
2022/10/08 11:06:57;;;;;;;11.73;2.10;;;;;;;;;;5073224;28;20276;-44
2022/10/08 11:09:29;;;;;;;4.20;2.30;;;;;;;;;;5072034;28;20215;-42
2022/10/08 11:11:58;;;;;;;5.30;2.03;;;;;;;;;;5069046;28;20200;-39
2022/10/08 11:14:44;;;;;;;5.03;1.73;;;;;;;;;;5066970;28;20209;-40
2022/10/08 11:17:17;;;;;;;9.63;1.97;;;;;;;;;;5069266;28;20341;-35
2022/10/08 11:19:48;;;;;;;5.60;2.40;;;;;;;;;;5067554;28;20283;-41
2022/10/08 11:22:21;;;;;;;6.47;1.97;;;;;;;;;;5071153;28;20205;-41
2022/10/08 11:24:53;;;;;;;3.13;1.60;;;;;;;;;;5061272;28;20269;-39
2022/10/08 11:27:24;;;;;;;6.77;2.23;;;;;;;;;;5065239;28;20220;-41
2022/10/08 11:29:57;;;;;;;4.93;1.60;;;;;;;;;;5066388;28;20576;-39
2022/10/08 11:32:34;;;;;;;6.17;1.90;;;;;;;;;;5063493;28;20213;-39
2022/10/08 11:35:05;;;;;;;5.33;2.07;;;;;;;;;;5072078;28;20201;-37
2022/10/08 11:37:37;;;;;;;6.90;1.77;;;;;;;;;;5072015;28;20228;-42
2022/10/08 11:40:07;;;;;;;6.13;2.10;;;;;;;;;;5071197;28;20224;-42
2022/10/08 11:42:38;;;;;;;6.60;1.93;;;;;;;;;;5066656;28;20212;-40
2022/10/08 11:45:29;;;;;;;7.07;2.10;;;;;;;;;;5072402;28;20213;-39
2022/10/08 11:47:56;;;;;;;6.00;1.97;;;;;;;;;;5060547;28;20208;-41
2022/10/08 11:50:27;;;;;;;6.47;2.00;;;;;;;;;;5071348;28;20312;-40
2022/10/08 11:52:55;;;;;;;3.57;1.50;;;;;;;;;;5072951;28;20205;-42
2022/10/08 11:55:25;;;;;;;7.67;1.60;;;;;;;;;;5073630;28;20229;-38
2022/10/08 11:58:00;;;;;;;6.80;1.60;;;;;;;;;;5069780;28;20258;-39
2022/10/08 12:00:35;;;;;;;4.40;1.97;;;;;;;;;;5070394;28;20284;-40
2022/10/08 12:03:04;;;;;;;3.63;1.77;;;;;;;;;;5058870;28;20201;-46
2022/10/08 12:05:41;;;;;;;5.93;1.60;;;;;;;;;;5072472;28;20205;-43
2022/10/08 12:08:09;;;;;;;6.00;1.40;;;;;;;;;;5072517;28;20205;-41
2022/10/08 12:10:37;;;;;;;4.27;1.80;;;;;;;;;;5070678;28;20300;-43
2022/10/08 12:13:25;;;;;;;5.07;1.60;;;;;;;;;;5060547;28;20210;-43
2022/10/08 12:18:42;;;;;;;8.73;3.57;;;;;;;;;;5042508;28;20279;-45
2022/10/08 12:21:42;;;;;;;7.63;1.87;;;;;;;;;;5044100;28;20312;-45
2022/10/08 12:24:24;;;;;;;5.00;1.80;;;;;;;;;;4966744;28;20205;-42
2022/10/08 12:27:11;;;;;;;9.07;1.87;;;;;;;;;;4964683;28;20299;-46
2022/10/08 12:29:53;;;;;;;4.03;1.47;;;;;;;;;;5015125;28;20236;-43
2022/10/08 12:32:20;;;;;;;4.07;1.70;;;;;;;;;;5038173;28;20878;-46
2022/10/08 12:34:48;;;;;;;5.87;1.60;;;;;;;;;;5043648;28;20655;-48
2022/10/08 12:37:22;;;;;;;5.67;1.50;;;;;;;;;;5044022;28;20307;-43
2022/10/08 12:39:50;;;;;;;4.87;1.40;;;;;;;;;;5038411;28;20626;-44
2022/10/08 12:42:20;;;;;;;4.00;1.60;;;;;;;;;;5037548;28;20210;-44
2022/10/08 12:44:58;;;;;;;5.07;1.70;;;;;;;;;;5047580;28;20202;-43
2022/10/08 12:47:28;;;;;;;4.67;1.40;;;;;;;;;;5047082;28;20291;-43
2022/10/08 12:50:01;;;;;;;3.37;1.23;;;;;;;;;;5043469;28;20233;-44
2022/10/08 12:52:33;;;;;;;5.13;1.47;;;;;;;;;;5051726;28;20220;-44
2022/10/08 12:55:02;;;;;;;2.40;1.37;;;;;;;;;;5047427;28;20202;-47
2022/10/08 12:57:33;;;;;;;4.13;2.00;;;;;;;;;;5047798;28;20202;-40
2022/10/08 13:00:01;;;;;;;6.70;1.70;;;;;;;;;;5051305;28;20222;-42
2022/10/08 13:02:35;;;;;;;4.47;1.30;;;;;;;;;;5046932;28;20202;-40
2022/10/08 13:05:04;;;;;;;3.70;1.50;;;;;;;;;;5043438;28;20610;-43
2022/10/08 13:07:33;;;;;;;4.33;1.30;;;;;;;;;;5051040;28;20220;-45
2022/10/08 13:10:01;;;;;;;3.77;1.40;;;;;;;;;;5051496;28;20230;-42
2022/10/08 13:12:28;;;;;;;2.57;1.37;;;;;;;;;;5046411;28;20252;-44
2022/10/08 13:14:59;;;;;;;4.10;1.40;;;;;;;;;;5052977;28;20220;-43
2022/10/08 13:17:30;;;;;;;5.77;2.07;;;;;;;;;;5052286;28;20214;-47
2022/10/08 13:20:06;;;;;;;6.97;4.97;;;;;;;;;;5050084;28;20786;-46
2022/10/08 13:22:33;;;;;;;7.37;3.37;;;;;;;;;;5054503;28;20198;-47
2022/10/08 13:25:00;;;;;;;2.77;1.77;;;;;;;;;;5049941;28;20206;-42
2022/10/08 13:27:28;;;;;;;2.37;1.40;;;;;;;;;;5041925;28;20218;-45
2022/10/08 13:29:55;;;;;;;6.13;1.80;;;;;;;;;;5053521;28;20248;-44
2022/10/08 13:32:24;;;;;;;4.43;2.43;;;;;;;;;;5048170;28;20207;-44
2022/10/08 13:34:52;;;;;;;7.97;4.00;;;;;;;;;;5040658;28;20256;-47
2022/10/08 13:37:31;;;;;;;6.63;2.80;;;;;;;;;;5052969;28;20213;-44
2022/10/08 13:40:00;;;;;;;4.57;2.00;;;;;;;;;;5055165;28;20222;-44
2022/10/08 13:42:28;;;;;;;4.73;1.70;;;;;;;;;;5049657;28;20292;-43
2022/10/08 13:44:57;;;;;;;4.73;1.80;;;;;;;;;;5054606;28;20414;-44
2022/10/08 13:47:24;;;;;;;2.63;1.53;;;;;;;;;;5050317;28;20202;-39
2022/10/08 13:49:54;;;;;;;6.10;1.70;;;;;;;;;;5043398;28;20230;-45
2022/10/08 13:52:22;;;;;;;8.60;5.93;;;;;;;;;;5044461;28;20256;-46
2022/10/08 13:54:51;;;;;;;4.50;2.27;;;;;;;;;;5048584;28;20644;-43
2022/10/08 13:57:18;;;;;;;8.80;2.93;;;;;;;;;;5052304;28;20205;-45
2022/10/08 13:59:45;;;;;;;2.37;1.57;;;;;;;;;;5053353;28;20645;-43
2022/10/08 14:02:13;;;;;;;4.70;1.30;;;;;;;;;;5050342;28;20559;-45
2022/10/08 14:04:41;;;;;;;6.40;1.87;;;;;;;;;;5038278;28;20233;-44
2022/10/08 14:07:14;;;;;;;6.77;4.47;;;;;;;;;;5053570;28;20202;-42
2022/10/08 14:09:41;;;;;;;3.57;1.10;;;;;;;;;;5050897;28;20226;-42
2022/10/08 14:12:10;;;;;;;1.97;1.20;;;;;;;;;;5052679;28;20349;-46
2022/10/08 14:14:37;;;;;;;4.00;1.43;;;;;;;;;;5053804;28;20237;-44
2022/10/08 14:17:04;;;;;;;2.87;1.23;;;;;;;;;;5051308;28;20225;-45
2022/10/08 14:19:31;;;;;;;4.00;1.30;;;;;;;;;;5041850;28;20220;-45
2022/10/08 14:21:58;;;;;;;6.00;1.37;;;;;;;;;;5048946;28;20208;-44
2022/10/08 14:24:25;;;;;;;2.03;0.70;;;;;;;;;;5050192;28;20289;-46
2022/10/08 14:26:52;;;;;;;1.37;0.73;;;;;;;;;;5044148;28;20546;-45
2022/10/08 14:29:21;;;;;;;1.80;0.90;;;;;;;;;;5033894;28;20219;-45
2022/10/08 14:31:48;;;;;;;3.53;1.43;;;;;;;;;;5047282;28;20210;-45
2022/10/08 14:34:15;;;;;;;4.50;1.40;;;;;;;;;;5048981;28;20210;-42
2022/10/08 14:36:42;;;;;;;3.87;1.10;;;;;;;;;;5050825;28;20205;-44
2022/10/08 14:39:09;;;;;;;2.00;1.03;;;;;;;;;;5053596;28;20411;-44
2022/10/08 14:41:38;;;;;;;2.77;1.03;;;;;;;;;;5050387;28;20283;-40
2022/10/08 14:44:06;;;;;;;2.00;1.10;;;;;;;;;;5053588;28;20208;-44
2022/10/08 14:46:35;;;;;;;3.80;1.20;;;;;;;;;;5046032;28;20206;-43
2022/10/08 14:49:03;;;;;;;2.10;0.87;;;;;;;;;;5042864;28;20315;-45
2022/10/08 14:51:37;;;;;;;4.10;1.40;;;;;;;;;;5050945;28;20233;-46
2022/10/08 14:54:04;;;;;;;3.17;1.23;;;;;;;;;;5034609;28;20202;-42
2022/10/08 14:56:36;;;;;;;1.30;1.07;;;;;;;;;;5045843;28;20202;-44
2022/10/08 14:59:03;;;;;;;1.67;0.83;;;;;;;;;;5050708;28;20221;-45
2022/10/08 15:01:31;;;;;;;1.67;1.10;;;;;;;;;;5051166;28;20226;-46